Terminal Aerodrome Forecast
Issued by NWS Omaha/Valley, NE

Home | Current Version | Previous Version | Text Only | Print | Product List | Glossary On
Versions: 1 2 3 4 5 6 7 8 9 10 11 12 13 14 15 16 17 18 19 20
000
FTUS43 KOAX 191140
TAFOFK
TAF
KOFK 191140Z 1912/2012 11004KT P6SM SCT200
     FM191700 16009KT P6SM FEW200
     FM200000 19012KT P6SM FEW250
     FM200400 19009KT P6SM SCT250 WS020/21045KT
     FM200600 19007KT P6SM SCT200=

USA.gov is the U.S. government's official web portal to all federal, state and local government web resources and services.